createdAt,value
2022-09-17T00:00:52.444Z,2.97
2022-09-17T00:03:18.989Z,2.63
2022-09-17T00:05:45.395Z,1.58
2022-09-17T00:08:14.788Z,2.22
2022-09-17T00:10:42.146Z,3.00
2022-09-17T00:13:08.977Z,3.20
2022-09-17T00:15:42.472Z,2.35
2022-09-17T00:18:09.012Z,2.95
2022-09-17T00:20:39.523Z,2.90
2022-09-17T00:23:06.325Z,2.83
2022-09-17T00:25:32.853Z,1.65
2022-09-17T00:27:59.313Z,2.67
2022-09-17T00:30:25.753Z,3.20
2022-09-17T00:32:53.127Z,2.78
2022-09-17T00:35:19.564Z,2.60
2022-09-17T00:37:45.892Z,2.55
2022-09-17T00:40:12.411Z,2.55
2022-09-17T00:42:38.797Z,2.20
2022-09-17T00:45:05.436Z,2.10
2022-09-17T00:47:33.672Z,2.15
2022-09-17T00:50:05.652Z,2.40
2022-09-17T00:52:34.462Z,2.50
2022-09-17T00:55:07.834Z,2.15
2022-09-17T00:57:34.429Z,2.67
2022-09-17T01:00:00.969Z,2.13
2022-09-17T01:02:27.498Z,2.70
2022-09-17T01:04:54.090Z,2.47
2022-09-17T01:07:44.116Z,2.47
2022-09-17T01:10:20.884Z,2.22
2022-09-17T01:13:07.320Z,2.15
2022-09-17T01:15:36.571Z,2.00
2022-09-17T01:18:19.061Z,2.55
2022-09-17T01:20:48.676Z,2.25
2022-09-17T01:23:14.980Z,2.65
2022-09-17T01:25:54.828Z,2.20
2022-09-17T01:28:21.157Z,2.30
2022-09-17T01:30:59.361Z,2.28
2022-09-17T01:33:37.405Z,2.50
2022-09-17T01:36:22.582Z,2.90
2022-09-17T01:39:15.427Z,2.05
2022-09-17T01:41:54.034Z,2.47
2022-09-17T01:44:26.826Z,2.70
2022-09-17T01:46:54.914Z,2.35
2022-09-17T01:49:25.349Z,2.80
2022-09-17T01:51:53.853Z,2.97
2022-09-17T01:54:28.853Z,2.58
2022-09-17T01:56:58.298Z,4.07
2022-09-17T01:59:30.482Z,5.47
2022-09-17T02:02:00.600Z,4.70
2022-09-17T02:04:37.304Z,4.28
2022-09-17T02:07:05.988Z,5.38
2022-09-17T02:09:41.862Z,3.92
2022-09-17T02:12:12.324Z,4.25
2022-09-17T02:14:53.650Z,3.95
2022-09-17T02:17:26.905Z,3.00
2022-09-17T02:19:54.572Z,2.85
2022-09-17T02:22:27.777Z,2.80
2022-09-17T02:24:59.958Z,2.85
2022-09-17T02:27:26.340Z,3.47
2022-09-17T02:29:52.688Z,3.13
2022-09-17T02:32:19.827Z,2.63
2022-09-17T02:34:46.242Z,3.22
2022-09-17T02:37:12.700Z,3.15
2022-09-17T02:39:39.049Z,2.10
2022-09-17T02:42:17.368Z,2.90
2022-09-17T02:44:50.452Z,2.78
2022-09-17T02:47:27.984Z,2.22
2022-09-17T02:50:06.488Z,3.40
2022-09-17T02:52:46.813Z,3.28
2022-09-17T02:55:31.973Z,2.08
2022-09-17T02:58:01.244Z,2.30
2022-09-17T03:00:28.731Z,2.92
2022-09-17T03:03:00.914Z,2.90
2022-09-17T03:05:28.245Z,2.00
2022-09-17T03:07:55.592Z,2.25
2022-09-17T03:10:22.053Z,1.77
2022-09-17T03:12:48.642Z,2.17
2022-09-17T03:15:15.022Z,1.70
2022-09-17T03:17:41.530Z,2.10
2022-09-17T03:20:08.443Z,3.35
2022-09-17T03:22:35.629Z,2.10
2022-09-17T03:25:02.451Z,2.72
2022-09-17T03:27:29.842Z,2.83
2022-09-17T03:29:56.261Z,2.00
2022-09-17T03:32:22.589Z,1.80
2022-09-17T03:34:48.926Z,1.98
2022-09-17T03:37:15.557Z,2.03
2022-09-17T03:39:41.904Z,2.65
2022-09-17T03:42:08.297Z,1.65
2022-09-17T03:44:34.666Z,1.85
2022-09-17T03:47:01.017Z,1.42
2022-09-17T03:49:27.445Z,1.40
2022-09-17T03:51:53.857Z,2.20
2022-09-17T03:54:20.325Z,2.63
2022-09-17T03:56:46.758Z,2.65
2022-09-17T03:59:13.221Z,2.15
2022-09-17T04:01:39.851Z,2.85
2022-09-17T04:04:06.654Z,2.17
2022-09-17T04:06:33.060Z,2.35
2022-09-17T04:09:00.908Z,2.08
2022-09-17T04:11:27.533Z,2.20
2022-09-17T04:13:53.900Z,1.88
2022-09-17T04:16:20.271Z,1.80
2022-09-17T04:18:46.728Z,2.40
2022-09-17T04:21:13.101Z,2.42
2022-09-17T04:23:39.441Z,2.00
2022-09-17T04:26:05.956Z,2.08
2022-09-17T04:28:32.305Z,1.60
2022-09-17T04:30:58.705Z,2.05
2022-09-17T04:33:25.106Z,2.30
2022-09-17T04:35:51.489Z,2.15
2022-09-17T04:38:20.528Z,2.50
2022-09-17T04:40:46.972Z,2.03
2022-09-17T04:43:13.577Z,2.17
2022-09-17T04:45:39.972Z,2.45
2022-09-17T04:48:06.359Z,2.13
2022-09-17T04:50:32.874Z,3.20
2022-09-17T04:52:59.337Z,2.13
2022-09-17T04:55:26.393Z,1.98
2022-09-17T04:57:53.401Z,2.83
2022-09-17T05:00:20.786Z,2.35
2022-09-17T05:02:48.969Z,3.10
2022-09-17T05:05:15.909Z,2.42
2022-09-17T05:07:42.324Z,2.38
2022-09-17T05:10:09.617Z,2.13
2022-09-17T05:12:36.003Z,2.17
2022-09-17T05:15:02.441Z,2.40
2022-09-17T05:17:28.917Z,2.20
2022-09-17T05:19:55.249Z,2.25
2022-09-17T05:22:21.795Z,1.67
2022-09-17T05:24:48.210Z,2.20
2022-09-17T05:27:14.770Z,1.83
2022-09-17T05:29:41.084Z,2.05
2022-09-17T05:32:07.458Z,2.22
2022-09-17T05:34:33.996Z,2.08
2022-09-17T05:37:00.391Z,1.80
2022-09-17T05:39:26.718Z,2.08
2022-09-17T05:41:53.301Z,2.03
2022-09-17T05:44:19.745Z,2.28
2022-09-17T05:46:46.425Z,1.70
2022-09-17T05:49:13.291Z,2.70
2022-09-17T05:51:39.703Z,1.45
2022-09-17T05:54:06.168Z,1.67
2022-09-17T05:56:32.704Z,2.00
2022-09-17T05:58:59.140Z,2.00
2022-09-17T06:01:25.897Z,1.85
2022-09-17T06:03:52.509Z,1.77
2022-09-17T06:06:18.994Z,1.90
2022-09-17T06:08:45.354Z,2.17
2022-09-17T06:11:11.946Z,3.35
2022-09-17T06:13:38.385Z,2.00
2022-09-17T06:16:04.901Z,2.70
2022-09-17T06:18:31.852Z,1.95
2022-09-17T06:21:02.241Z,2.65
2022-09-17T06:23:33.080Z,2.08
2022-09-17T06:26:00.237Z,2.20
2022-09-17T06:28:27.311Z,1.98
2022-09-17T06:30:55.820Z,1.92
2022-09-17T06:33:22.873Z,2.00
2022-09-17T06:35:49.599Z,1.85
2022-09-17T06:38:16.094Z,1.73
2022-09-17T06:40:42.649Z,1.60
2022-09-17T06:43:09.031Z,1.67
2022-09-17T06:45:35.341Z,1.50
2022-09-17T06:48:03.773Z,2.10
2022-09-17T06:50:31.171Z,1.77
2022-09-17T06:52:57.528Z,1.40
2022-09-17T06:55:24.061Z,2.03
2022-09-17T06:57:50.482Z,1.90
2022-09-17T07:00:16.894Z,1.70
2022-09-17T07:02:44.346Z,1.80
2022-09-17T07:05:10.707Z,1.50
2022-09-17T07:07:37.260Z,1.70
2022-09-17T07:10:03.685Z,1.63
2022-09-17T07:12:30.005Z,1.92
2022-09-17T07:14:56.323Z,1.60
2022-09-17T07:17:23.194Z,1.25
2022-09-17T07:19:49.496Z,1.50
2022-09-17T07:22:16.426Z,1.70
2022-09-17T07:24:42.791Z,1.38
2022-09-17T07:27:09.128Z,1.40
2022-09-17T07:29:35.428Z,1.70
2022-09-17T07:32:01.812Z,2.10
2022-09-17T07:34:29.016Z,1.30
2022-09-17T07:36:55.358Z,2.20
2022-09-17T07:39:21.669Z,1.23
2022-09-17T07:41:48.009Z,1.42
2022-09-17T07:44:14.364Z,1.70
2022-09-17T07:46:41.741Z,1.45
2022-09-17T07:49:08.234Z,1.40
2022-09-17T07:51:34.551Z,1.25
2022-09-17T07:54:02.217Z,1.45
2022-09-17T07:56:28.661Z,1.52
2022-09-17T07:58:55.153Z,1.20
2022-09-17T08:01:22.498Z,1.23
2022-09-17T08:03:50.297Z,1.58
2022-09-17T08:06:21.037Z,1.30
2022-09-17T08:08:47.705Z,1.58
2022-09-17T08:11:23.666Z,1.35
2022-09-17T08:13:59.755Z,1.83
2022-09-17T08:16:26.286Z,1.17
2022-09-17T08:18:56.610Z,1.30
2022-09-17T08:21:23.882Z,1.17
2022-09-17T08:23:50.245Z,1.48
2022-09-17T08:26:22.642Z,1.10
2022-09-17T08:31:16.775Z,1.48
2022-09-17T08:33:43.550Z,1.38
2022-09-17T08:36:10.865Z,1.17
2022-09-17T08:38:38.592Z,1.45
2022-09-17T08:41:12.579Z,1.65
2022-09-17T08:43:50.706Z,1.15
2022-09-17T08:46:17.093Z,1.27
2022-09-17T08:49:03.706Z,1.10
2022-09-17T08:51:55.330Z,1.67
2022-09-17T08:54:21.604Z,1.05
2022-09-17T08:56:52.293Z,1.17
2022-09-17T08:59:21.695Z,1.27
2022-09-17T09:01:51.168Z,1.27
2022-09-17T09:04:20.729Z,1.30
2022-09-17T09:06:49.843Z,1.00
2022-09-17T09:09:18.938Z,1.10
2022-09-17T09:11:47.095Z,1.30
2022-09-17T09:14:21.979Z,0.98
2022-09-17T09:16:49.634Z,0.75
2022-09-17T09:19:19.303Z,1.05
2022-09-17T09:21:51.979Z,0.88
2022-09-17T09:24:18.653Z,1.20
2022-09-17T09:26:58.622Z,1.23
2022-09-17T09:29:34.781Z,1.20
2022-09-17T09:32:19.946Z,1.10
2022-09-17T09:34:47.976Z,0.82
2022-09-17T09:37:24.244Z,1.45
2022-09-17T09:39:52.740Z,0.70
2022-09-17T09:42:23.980Z,1.20
2022-09-17T09:44:50.964Z,0.90
2022-09-17T09:47:23.022Z,0.93
2022-09-17T09:50:05.037Z,0.90
2022-09-17T09:52:38.223Z,0.95
2022-09-17T09:55:13.215Z,0.98
2022-09-17T09:57:43.763Z,1.08
2022-09-17T10:00:26.908Z,1.00
2022-09-17T10:02:56.980Z,0.88
2022-09-17T10:05:24.137Z,0.82
2022-09-17T10:07:50.920Z,0.63
2022-09-17T10:10:17.697Z,1.08
2022-09-17T10:12:44.878Z,0.52
2022-09-17T10:15:25.601Z,0.47
2022-09-17T10:18:10.932Z,0.70
2022-09-17T10:20:48.890Z,0.60
2022-09-17T10:23:15.997Z,0.73
2022-09-17T10:25:46.078Z,0.80
2022-09-17T10:28:24.580Z,0.90
2022-09-17T10:31:05.184Z,0.93
2022-09-17T10:33:37.086Z,0.73
2022-09-17T10:36:06.838Z,0.80
2022-09-17T10:38:35.476Z,0.80
2022-09-17T10:41:08.410Z,0.98
2022-09-17T10:43:35.355Z,1.10
2022-09-17T10:46:02.426Z,1.20
2022-09-17T10:48:32.554Z,0.90
2022-09-17T10:51:01.653Z,0.98
2022-09-17T10:53:28.800Z,1.25
2022-09-17T10:56:06.178Z,1.40
2022-09-17T10:58:56.181Z,2.05
2022-09-17T11:01:44.573Z,1.70
2022-09-17T11:04:30.375Z,1.90
2022-09-17T11:07:05.586Z,0.70
2022-09-17T11:09:32.581Z,0.73
2022-09-17T11:12:17.934Z,1.48
2022-09-17T11:14:51.046Z,0.77
2022-09-17T11:17:36.693Z,1.08
2022-09-17T11:20:06.455Z,0.93
2022-09-17T11:22:45.511Z,1.08
2022-09-17T11:25:24.569Z,1.42
2022-09-17T11:27:54.522Z,1.02
2022-09-17T11:30:22.073Z,0.68
2022-09-17T11:33:07.387Z,1.10
2022-09-17T11:35:50.973Z,1.20
2022-09-17T11:38:24.193Z,0.90
2022-09-17T11:40:53.588Z,1.02
2022-09-17T11:43:31.244Z,1.30
2022-09-17T11:46:00.350Z,0.90
2022-09-17T11:48:55.925Z,1.00
2022-09-17T11:51:26.247Z,1.17
2022-09-17T11:53:56.892Z,1.23
2022-09-17T11:56:26.012Z,1.25
2022-09-17T11:59:02.161Z,1.15
2022-09-17T12:01:38.108Z,1.35
2022-09-17T12:04:10.625Z,1.20
2022-09-17T12:09:15.998Z,1.52
2022-09-17T12:11:47.061Z,1.48
2022-09-17T12:14:25.082Z,1.95
2022-09-17T12:16:53.438Z,1.40
2022-09-17T12:19:23.861Z,1.60
2022-09-17T12:21:58.885Z,1.70
2022-09-17T12:24:29.229Z,1.92
2022-09-17T12:26:55.508Z,1.73
2022-09-17T12:29:31.073Z,1.30
2022-09-17T12:32:16.140Z,1.40
2022-09-17T12:35:00.915Z,1.65
2022-09-17T12:37:34.066Z,1.85
2022-09-17T12:40:00.391Z,1.50
2022-09-17T12:42:37.029Z,1.38
2022-09-17T12:45:22.036Z,1.35
2022-09-17T12:47:51.576Z,1.10
2022-09-17T12:50:37.181Z,0.98
2022-09-17T12:53:22.480Z,1.35
2022-09-17T12:56:07.625Z,1.48
2022-09-17T12:58:42.748Z,1.45
2022-09-17T13:01:32.447Z,1.52
2022-09-17T13:04:11.513Z,1.63
2022-09-17T13:06:37.856Z,1.60
2022-09-17T13:09:05.290Z,1.88
2022-09-17T13:11:50.367Z,1.52
2022-09-17T13:14:19.888Z,0.98
2022-09-17T13:17:00.402Z,1.60
2022-09-17T13:19:39.386Z,1.30
2022-09-17T13:22:07.323Z,1.00
2022-09-17T13:24:34.547Z,1.13
2022-09-17T13:27:02.076Z,0.70
2022-09-17T13:29:54.226Z,1.13
2022-09-17T13:32:32.920Z,1.05
2022-09-17T13:35:11.141Z,0.80
2022-09-17T13:37:44.721Z,1.17
2022-09-17T13:40:21.731Z,1.00
2022-09-17T13:42:49.628Z,0.85
2022-09-17T13:45:17.469Z,0.60
2022-09-17T13:47:53.490Z,0.90
2022-09-17T13:50:26.138Z,1.00
2022-09-17T13:52:53.367Z,1.23
2022-09-17T13:55:31.133Z,1.58
2022-09-17T13:57:57.930Z,1.42
2022-09-17T14:00:43.188Z,2.22
2022-09-17T14:03:28.505Z,0.95
2022-09-17T14:05:55.163Z,0.70
2022-09-17T14:08:28.540Z,0.80
2022-09-17T14:10:55.493Z,0.80
2022-09-17T14:13:37.951Z,1.02
2022-09-17T14:16:23.137Z,1.10
2022-09-17T14:19:01.441Z,0.80
2022-09-17T14:21:32.844Z,1.15
2022-09-17T14:24:01.361Z,1.25
2022-09-17T14:26:46.704Z,1.90
2022-09-17T14:29:33.317Z,1.67
2022-09-17T14:31:59.729Z,1.67
2022-09-17T14:34:26.750Z,1.77
2022-09-17T14:36:54.028Z,1.65
2022-09-17T14:39:39.589Z,2.05
2022-09-17T14:42:12.989Z,1.52
2022-09-17T14:44:48.105Z,1.15
2022-09-17T14:47:16.005Z,1.40
2022-09-17T14:49:43.005Z,1.58
2022-09-17T14:52:28.656Z,0.90
2022-09-17T14:55:10.198Z,1.33
2022-09-17T14:57:36.997Z,1.25
2022-09-17T15:00:07.698Z,1.00
2022-09-17T15:02:43.222Z,1.38
2022-09-17T15:07:39.947Z,1.35
2022-09-17T15:10:13.381Z,1.80
2022-09-17T15:12:39.769Z,1.15
2022-09-17T15:15:06.794Z,1.60
2022-09-17T15:17:33.636Z,1.33
2022-09-17T15:20:02.933Z,1.17
2022-09-17T15:22:51.116Z,1.95
2022-09-17T15:25:23.784Z,1.42
2022-09-17T15:27:50.575Z,1.83
2022-09-17T15:30:21.358Z,1.45
2022-09-17T15:32:50.854Z,1.52
2022-09-17T15:35:19.109Z,1.80
2022-09-17T15:38:11.517Z,2.08
2022-09-17T15:40:34.472Z,1.42
2022-09-17T15:43:00.816Z,1.92
2022-09-17T15:45:28.697Z,1.80
2022-09-17T15:47:56.106Z,1.83
2022-09-17T15:50:24.045Z,2.20
2022-09-17T15:52:51.593Z,1.70
2022-09-17T15:55:31.314Z,1.90
2022-09-17T15:57:59.338Z,1.90
2022-09-17T16:00:26.109Z,1.98
2022-09-17T16:02:52.959Z,1.58
2022-09-17T16:05:25.640Z,1.70
2022-09-17T16:07:53.016Z,1.50
2022-09-17T16:10:20.161Z,2.10
2022-09-17T16:12:49.218Z,2.33
2022-09-17T16:15:17.366Z,2.08
2022-09-17T16:17:46.181Z,1.95
2022-09-17T16:20:13.057Z,1.70
2022-09-17T16:22:39.888Z,1.85
2022-09-17T16:25:06.396Z,2.80
2022-09-17T16:27:42.520Z,2.13
2022-09-17T16:30:13.778Z,2.60
2022-09-17T16:32:40.189Z,2.20
2022-09-17T16:35:08.150Z,1.95
2022-09-17T16:37:34.649Z,2.08
2022-09-17T16:40:01.284Z,1.48
2022-09-17T16:42:32.305Z,2.85
2022-09-17T16:45:01.004Z,2.20
2022-09-17T16:47:27.413Z,1.95
2022-09-17T16:49:53.885Z,2.10
2022-09-17T16:52:20.237Z,2.20
2022-09-17T16:54:46.605Z,2.40
2022-09-17T16:57:12.966Z,2.00
2022-09-17T16:59:39.330Z,1.50
2022-09-17T17:02:06.525Z,1.80
2022-09-17T17:04:33.082Z,2.03
2022-09-17T17:07:00.645Z,1.55
2022-09-17T17:09:27.583Z,1.90
2022-09-17T17:11:54.037Z,1.85
2022-09-17T17:14:20.660Z,2.05
2022-09-17T17:16:47.241Z,1.75
2022-09-17T17:19:13.569Z,1.60
2022-09-17T17:21:42.979Z,1.58
2022-09-17T17:24:12.849Z,1.85
2022-09-17T17:26:39.214Z,2.00
2022-09-17T17:29:05.578Z,1.85
2022-09-17T17:31:31.903Z,2.70
2022-09-17T17:33:58.305Z,2.13
2022-09-17T17:36:25.664Z,2.17
2022-09-17T17:38:56.095Z,2.45
2022-09-17T17:41:25.360Z,3.08
2022-09-17T17:43:55.598Z,2.35
2022-09-17T17:46:23.173Z,2.03
2022-09-17T17:48:50.213Z,1.40
2022-09-17T17:51:18.621Z,1.58
2022-09-17T17:53:45.425Z,1.10
2022-09-17T17:56:12.930Z,1.30
2022-09-17T17:58:40.032Z,0.63
2022-09-17T18:01:13.958Z,0.90
2022-09-17T18:03:40.602Z,1.10
2022-09-17T18:06:07.436Z,0.88
2022-09-17T18:08:37.871Z,0.90
2022-09-17T18:11:04.625Z,1.33
2022-09-17T18:13:31.282Z,0.45
2022-09-17T18:15:59.036Z,0.80
2022-09-17T18:18:26.250Z,0.70
2022-09-17T18:20:54.737Z,0.80
2022-09-17T18:23:21.305Z,0.90
2022-09-17T18:25:58.076Z,0.70
2022-09-17T18:28:24.986Z,0.73
2022-09-17T18:30:51.489Z,0.85
2022-09-17T18:33:19.175Z,1.15
2022-09-17T18:35:45.939Z,1.00
2022-09-17T18:38:12.302Z,0.80
2022-09-17T18:40:38.790Z,0.85
2022-09-17T18:43:05.253Z,0.90
2022-09-17T18:45:32.097Z,1.48
2022-09-17T18:47:58.578Z,0.70
2022-09-17T18:50:24.933Z,1.00
2022-09-17T18:52:51.850Z,1.13
2022-09-17T18:55:18.249Z,0.73
2022-09-17T18:57:44.637Z,0.80
2022-09-17T19:00:11.528Z,0.88
2022-09-17T19:02:38.926Z,1.17
2022-09-17T19:05:05.541Z,1.00
2022-09-17T19:07:31.918Z,0.90
2022-09-17T19:09:58.325Z,1.10
2022-09-17T19:12:24.663Z,1.98
2022-09-17T19:14:51.075Z,1.33
2022-09-17T19:17:17.638Z,1.08
2022-09-17T19:19:44.078Z,1.00
2022-09-17T19:22:10.391Z,0.93
2022-09-17T19:24:37.035Z,1.40
2022-09-17T19:27:04.121Z,1.38
2022-09-17T19:29:30.513Z,1.50
2022-09-17T19:31:56.808Z,1.90
2022-09-17T19:34:23.196Z,1.40
2022-09-17T19:36:49.605Z,1.42
2022-09-17T19:39:17.565Z,1.38
2022-09-17T19:41:44.020Z,1.52
2022-09-17T19:44:10.332Z,2.35
2022-09-17T19:46:36.729Z,2.17
2022-09-17T19:49:03.269Z,1.70
2022-09-17T19:51:29.777Z,1.90
2022-09-17T19:53:56.978Z,2.78
2022-09-17T19:56:24.770Z,2.10
2022-09-17T19:58:51.206Z,2.55
2022-09-17T20:01:19.198Z,1.55
2022-09-17T20:03:46.060Z,1.92
2022-09-17T20:06:14.086Z,1.80
2022-09-17T20:08:47.504Z,1.80
2022-09-17T20:11:14.520Z,1.23
2022-09-17T20:13:40.970Z,2.30
2022-09-17T20:16:09.007Z,2.15
2022-09-17T20:18:37.226Z,1.80
2022-09-17T20:21:12.457Z,1.65
2022-09-17T20:23:38.924Z,1.42
2022-09-17T20:26:05.780Z,1.20
2022-09-17T20:28:32.284Z,1.30
2022-09-17T20:31:03.185Z,1.10
2022-09-17T20:33:30.089Z,1.45
2022-09-17T20:36:15.611Z,1.30
2022-09-17T20:39:10.723Z,1.02
2022-09-17T20:41:28.943Z,1.15
2022-09-17T20:43:55.565Z,1.25
2022-09-17T20:46:28.395Z,1.00
2022-09-17T20:48:57.272Z,2.13
2022-09-17T20:51:24.598Z,2.60
2022-09-17T20:53:51.280Z,1.25
2022-09-17T20:56:19.085Z,1.05
2022-09-17T20:58:50.031Z,1.05
2022-09-17T21:01:21.781Z,1.23
2022-09-17T21:03:50.125Z,1.23
2022-09-17T21:06:21.138Z,1.35
2022-09-17T21:08:47.596Z,1.13
2022-09-17T21:11:14.942Z,1.20
2022-09-17T21:13:41.873Z,2.00
2022-09-17T21:16:09.809Z,1.60
2022-09-17T21:18:39.565Z,1.70
2022-09-17T21:21:13.658Z,1.25
2022-09-17T21:23:40.557Z,1.58
2022-09-17T21:26:14.662Z,1.92
2022-09-17T21:28:41.653Z,1.40
2022-09-17T21:31:11.079Z,1.42
2022-09-17T21:33:39.137Z,1.70
2022-09-17T21:36:06.702Z,1.58
2022-09-17T21:38:33.248Z,1.58
2022-09-17T21:41:00.560Z,2.17
2022-09-17T21:43:27.334Z,2.05
2022-09-17T21:46:01.038Z,1.80
2022-09-17T21:48:27.740Z,1.92
2022-09-17T21:50:54.193Z,2.38
2022-09-17T21:53:20.542Z,1.85
2022-09-17T21:55:46.950Z,1.88
2022-09-17T21:58:13.344Z,1.52
2022-09-17T22:00:39.723Z,2.42
2022-09-17T22:03:06.201Z,2.75
2022-09-17T22:05:32.629Z,2.28
2022-09-17T22:07:59.001Z,2.08
2022-09-17T22:10:25.442Z,2.10
2022-09-17T22:12:51.874Z,2.08
2022-09-17T22:15:18.213Z,2.30
2022-09-17T22:17:44.638Z,1.90
2022-09-17T22:20:11.108Z,2.40
2022-09-17T22:22:37.573Z,2.60
2022-09-17T22:25:04.188Z,2.05
2022-09-17T22:27:32.199Z,2.22
2022-09-17T22:29:58.632Z,2.35
2022-09-17T22:32:24.933Z,2.22
2022-09-17T22:34:52.970Z,2.03
2022-09-17T22:37:19.874Z,1.85
2022-09-17T22:39:46.215Z,1.85
2022-09-17T22:42:12.542Z,2.00
2022-09-17T22:44:38.977Z,2.58
2022-09-17T22:47:05.360Z,2.08
2022-09-17T22:49:31.738Z,2.05
2022-09-17T22:51:58.079Z,1.85
2022-09-17T22:54:24.508Z,2.78
2022-09-17T22:56:50.896Z,3.03
2022-09-17T22:59:18.225Z,2.08
2022-09-17T23:01:45.018Z,1.98
2022-09-17T23:04:11.435Z,2.63
2022-09-17T23:06:39.225Z,2.60
2022-09-17T23:09:06.212Z,2.72
2022-09-17T23:11:34.090Z,2.55
2022-09-17T23:14:02.259Z,2.90
2022-09-17T23:16:29.092Z,2.85
2022-09-17T23:18:55.430Z,2.53
2022-09-17T23:21:21.885Z,2.55
2022-09-17T23:23:49.650Z,2.33
2022-09-17T23:26:20.695Z,2.63
2022-09-17T23:28:47.703Z,2.85
2022-09-17T23:31:17.571Z,2.60
2022-09-17T23:33:44.431Z,2.05
2022-09-17T23:36:15.295Z,2.22
2022-09-17T23:38:42.433Z,2.53
2022-09-17T23:41:17.965Z,3.05
2022-09-17T23:43:45.584Z,2.80
2022-09-17T23:46:12.399Z,3.35
2022-09-17T23:48:43.327Z,2.05
2022-09-17T23:51:09.974Z,2.50
2022-09-17T23:53:37.090Z,2.33
2022-09-17T23:56:04.200Z,2.25
2022-09-17T23:58:33.624Z,2.05
